Impacts TAF Board
For situational awareness. Not to be used for flight planning purposes.
IDs:

KGTR - Golden Triangle Arpt, MS, US

Issued at 2332 UTC 05 Dec 2020
Updated at 0226 UTC 06 Dec 2020
Potential Impact None Slight Moderate High
Time0156Z 06/03Z 06/04Z 06/05Z 06/06Z 06/07Z 06/08Z 06/09Z 06/10Z 06/11Z 06/12Z 06/13Z 06/14Z 06/15Z>>
Type OBS PRVL PRVL PRVL PRVL PRVL PRVL PRVL PRVL PRVL PRVL PRVL PRVL PRVL
VIS 10 >6 >6 >6 >6 >6 >6 >6 >6 >6 >6 >6 >6 >6
CIG -- 250 250 250 250 250 250 250 250 250 250 250 250 250
Cover CLR BKN BKN BKN BKN BKN BKN BKN BKN BKN BKN BKN BKN BKN
FltCat VFR VFR VFR VFR VFR VFR VFR VFR VFR VFR VFR VFR VFR VFR
WX -- -- -- -- -- -- -- -- -- -- -- -- -- --
WDir VRB 240 240 240 240 240 240 240 240 240 240 240 240 240
WSpd 0 4 4 4 4 4 4 4 4 4 4 4 4 4
WGst -- -- -- -- -- -- -- -- -- -- -- -- -- --
Raw TAF
KGTR 052332Z 0600/0624 24004KT P6SM BKN250

Raw METAR
KGTR 060156Z AUTO 00000KT 10SM CLR 08/05 A3013 RMK AO2 SLP211 T00780050
KGTR 060056Z 00000KT 10SM CLR 07/06 A3013 RMK AO2 SLP212 T00720056
KGTR 052356Z 00000KT 10SM CLR 10/05 A3012 RMK AO2 SLP209 T01000050 10161 20100 56000

METAR Board
Radar Display
Forecast Discussion
For situational awareness. Not to be used for flight planning purposes.